createdAt,value
2022-09-05T00:02:06.676Z,99655.03
2022-09-05T00:05:04.122Z,99662.22
2022-09-05T00:08:07.624Z,99655.13
2022-09-05T00:11:40.658Z,99649.09
2022-09-05T00:14:34.207Z,99648.81
2022-09-05T00:17:54.256Z,99652.03
2022-09-05T00:24:21.664Z,99647.63
2022-09-05T00:24:32.402Z,99651.94
2022-09-05T00:26:50.626Z,99646.50
2022-09-05T00:29:44.898Z,99650.66
2022-09-05T00:32:50.420Z,99644.34
2022-09-05T00:35:41.543Z,99646.31
2022-09-05T00:38:18.272Z,99645.03
2022-09-05T00:40:44.835Z,99648.75
2022-09-05T00:43:17.911Z,99650.00
2022-09-05T00:46:10.345Z,99647.28
2022-09-05T00:48:53.596Z,99648.94
2022-09-05T00:51:41.784Z,99644.75
2022-09-05T00:54:12.622Z,99642.94
2022-09-05T00:56:51.733Z,99658.97
2022-09-05T00:59:24.096Z,99660.91
2022-09-05T01:02:04.856Z,99657.25
2022-09-05T01:04:59.758Z,99651.06
2022-09-05T01:07:26.352Z,99657.72
2022-09-05T01:10:03.831Z,99658.91
2022-09-05T01:12:36.085Z,99658.38
2022-09-05T01:15:22.364Z,99657.72
2022-09-05T01:18:06.927Z,99662.84
2022-09-05T01:20:52.952Z,99665.63
2022-09-05T01:23:41.378Z,99666.34
2022-09-05T01:26:10.900Z,99668.88
2022-09-05T01:29:15.904Z,99667.16
2022-09-05T01:32:19.483Z,99669.94
2022-09-05T01:35:09.642Z,99673.06
2022-09-05T01:37:50.706Z,99670.41
2022-09-05T01:40:39.423Z,99670.78
2022-09-05T01:43:34.519Z,99673.00
2022-09-05T01:46:28.135Z,99670.25
2022-09-05T01:49:08.805Z,99674.22
2022-09-05T01:51:45.855Z,99675.59
2022-09-05T01:54:30.851Z,99691.06
2022-09-05T01:57:29.350Z,99690.72
2022-09-05T02:00:07.687Z,99680.25
2022-09-05T02:03:17.164Z,99686.31
2022-09-05T02:06:06.285Z,99681.63
2022-09-05T02:08:42.238Z,99690.44
2022-09-05T02:11:11.050Z,99689.47
2022-09-05T02:13:37.780Z,99700.78
2022-09-05T02:16:32.377Z,99697.09
2022-09-05T02:19:11.021Z,99703.69
2022-09-05T02:22:19.859Z,99699.13
2022-09-05T02:25:18.049Z,99698.78
2022-09-05T02:28:06.297Z,99702.69
2022-09-05T02:30:58.069Z,99700.31
2022-09-05T02:33:35.783Z,99698.13
2022-09-05T02:36:30.814Z,99698.97
2022-09-05T02:45:04.305Z,99692.91
2022-09-05T02:45:07.734Z,99694.44
2022-09-05T02:45:28.107Z,99699.69
2022-09-05T02:48:16.194Z,99695.94
2022-09-05T02:57:28.670Z,99705.59
2022-09-05T02:57:33.864Z,99704.28
2022-09-05T02:57:40.615Z,99702.72
2022-09-05T03:00:20.235Z,99703.44
2022-09-05T03:03:01.916Z,99701.84
2022-09-05T03:05:38.134Z,99698.66
2022-09-05T03:08:19.840Z,99697.97
2022-09-05T03:11:20.552Z,99699.16
2022-09-05T03:14:08.665Z,99696.25
2022-09-05T03:16:59.777Z,99692.88
2022-09-05T03:19:46.143Z,99694.94
2022-09-05T03:22:22.781Z,99698.97
2022-09-05T03:24:57.454Z,99705.25
2022-09-05T03:28:03.827Z,99701.56
2022-09-05T03:30:49.156Z,99707.81
2022-09-05T03:33:30.889Z,99699.69
2022-09-05T03:36:16.645Z,99701.06
2022-09-05T03:39:13.269Z,99705.09
2022-09-05T03:42:16.980Z,99700.34
2022-09-05T03:44:48.602Z,99707.31
2022-09-05T03:48:27.589Z,99705.78
2022-09-05T03:57:08.334Z,99707.81
2022-09-05T03:57:13.961Z,99699.69
2022-09-05T03:57:38.810Z,99704.22
2022-09-05T04:00:22.904Z,99703.22
2022-09-05T04:08:09.647Z,99694.94
2022-09-05T04:08:25.311Z,99700.34
2022-09-05T04:08:56.274Z,99696.09
2022-09-05T04:11:42.226Z,99701.34
2022-09-05T04:14:38.656Z,99695.25
2022-09-05T04:17:11.491Z,99700.31
2022-09-05T04:19:50.009Z,99702.00
2022-09-05T04:22:34.809Z,99701.84
2022-09-05T04:25:24.695Z,99703.50
2022-09-05T04:28:14.061Z,99704.88
2022-09-05T04:30:49.009Z,99710.81
2022-09-05T04:33:18.535Z,99713.22
2022-09-05T04:36:18.181Z,99710.69
2022-09-05T04:38:45.847Z,99716.56
2022-09-05T04:41:16.263Z,99725.00
2022-09-05T04:43:56.481Z,99727.66
2022-09-05T04:46:29.603Z,99731.88
2022-09-05T04:49:05.503Z,99733.41
2022-09-05T04:51:34.081Z,99731.84
2022-09-05T04:54:22.229Z,99736.09
2022-09-05T04:56:54.971Z,99738.97
2022-09-05T05:03:51.485Z,99746.13
2022-09-05T05:06:12.751Z,99750.69
2022-09-05T05:06:13.501Z,99747.31
2022-09-05T05:08:28.784Z,99752.69
2022-09-05T05:14:45.869Z,99741.16
2022-09-05T05:18:07.220Z,99758.56
2022-09-05T05:18:15.469Z,99753.47
2022-09-05T05:20:40.287Z,99763.50
2022-09-05T05:23:14.938Z,99769.59
2022-09-05T05:25:44.500Z,99760.97
2022-09-05T05:28:23.926Z,99762.19
2022-09-05T05:30:55.367Z,99761.50
2022-09-05T05:33:34.305Z,99762.38
2022-09-05T05:36:03.925Z,99757.66
2022-09-05T05:38:42.572Z,99760.53
2022-09-05T05:41:36.638Z,99759.22
2022-09-05T05:44:13.257Z,99755.31
2022-09-05T05:46:44.431Z,99757.22
2022-09-05T05:49:45.936Z,99758.41
2022-09-05T05:52:31.125Z,99765.84
2022-09-05T05:55:50.192Z,99760.75
2022-09-05T05:58:46.951Z,99763.63
2022-09-05T06:01:47.606Z,99767.19
2022-09-05T06:04:26.227Z,99763.66
2022-09-05T06:07:48.251Z,99762.09
2022-09-05T06:14:52.060Z,99770.56
2022-09-05T06:15:00.623Z,99765.66
2022-09-05T06:17:26.331Z,99763.25
2022-09-05T06:22:04.124Z,99757.59
2022-09-05T06:23:43.120Z,99762.16
2022-09-05T06:26:21.233Z,99753.50
2022-09-05T06:29:38.043Z,99756.03
2022-09-05T06:32:27.160Z,99746.81
2022-09-05T06:35:13.761Z,99744.72
2022-09-05T06:38:19.515Z,99742.47
2022-09-05T06:41:21.278Z,99747.97
2022-09-05T06:44:22.273Z,99744.84
2022-09-05T06:47:22.693Z,99740.56
2022-09-05T06:50:24.247Z,99734.22
2022-09-05T06:53:24.853Z,99738.16
2022-09-05T06:56:26.271Z,99729.72
2022-09-05T06:59:35.479Z,99721.97
2022-09-05T07:02:10.234Z,99724.63
2022-09-05T07:05:37.489Z,99716.13
2022-09-05T07:07:46.211Z,99712.09
2022-09-05T07:10:38.624Z,99710.13
2022-09-05T07:13:26.160Z,99699.50
2022-09-05T07:16:26.648Z,99702.75
2022-09-05T07:19:27.610Z,99707.50
2022-09-05T07:22:45.876Z,99714.13
2022-09-05T07:25:06.164Z,99701.28
2022-09-05T07:27:41.977Z,99713.06
2022-09-05T07:30:25.460Z,99712.94
2022-09-05T07:32:55.448Z,99706.94
2022-09-05T07:35:24.172Z,99702.38
2022-09-05T07:38:02.929Z,99703.69
2022-09-05T07:40:32.271Z,99715.28
2022-09-05T07:43:09.328Z,99714.13
2022-09-05T07:45:52.193Z,99710.22
2022-09-05T07:48:35.025Z,99714.06
2022-09-05T07:56:55.289Z,99708.28
2022-09-05T07:57:03.158Z,99709.75
2022-09-05T07:57:22.430Z,99717.81
2022-09-05T07:59:41.557Z,99713.41
2022-09-05T08:02:11.557Z,99720.13
2022-09-05T08:04:41.670Z,99712.22
2022-09-05T08:07:49.191Z,99714.13
2022-09-05T08:10:22.128Z,99708.69
2022-09-05T08:13:24.120Z,99715.63
2022-09-05T08:16:13.348Z,99719.63
2022-09-05T08:18:59.935Z,99718.56
2022-09-05T08:21:40.527Z,99708.69
2022-09-05T08:24:13.711Z,99710.38
2022-09-05T08:26:47.277Z,99701.31
2022-09-05T08:29:37.838Z,99706.56
2022-09-05T08:32:08.263Z,99703.81
2022-09-05T08:34:44.780Z,99694.97
2022-09-05T08:37:21.477Z,99696.22
2022-09-05T08:40:10.129Z,99696.63
2022-09-05T08:46:37.150Z,99690.88
2022-09-05T08:46:44.799Z,99691.84
2022-09-05T08:49:15.534Z,99687.19
2022-09-05T08:51:58.910Z,99700.00
2022-09-05T08:55:06.292Z,99697.19
2022-09-05T08:57:45.481Z,99697.16
2022-09-05T09:00:20.524Z,99687.19
2022-09-05T09:03:35.821Z,99683.94
2022-09-05T09:06:15.707Z,99687.03
2022-09-05T09:09:05.773Z,99676.44
2022-09-05T09:11:47.684Z,99677.03
2022-09-05T09:14:37.179Z,99674.47
2022-09-05T09:17:40.762Z,99676.88
2022-09-05T09:20:45.234Z,99676.81
2022-09-05T09:23:33.808Z,99669.69
2022-09-05T09:26:17.140Z,99668.31
2022-09-05T09:28:51.724Z,99661.59
2022-09-05T09:31:37.625Z,99660.03
2022-09-05T09:34:19.271Z,99654.16
2022-09-05T09:36:51.696Z,99652.25
2022-09-05T09:39:38.150Z,99648.69
2022-09-05T09:42:33.101Z,99642.38
2022-09-05T09:45:27.837Z,99640.97
2022-09-05T09:48:21.187Z,99646.56
2022-09-05T09:51:09.529Z,99636.78
2022-09-05T09:53:42.775Z,99639.19
2022-09-05T09:56:40.451Z,99640.13
2022-09-05T09:59:23.312Z,99644.31
2022-09-05T10:03:00.840Z,99639.41
2022-09-05T10:10:36.319Z,99631.75
2022-09-05T10:10:43.514Z,99637.66
2022-09-05T10:11:54.874Z,99633.00
2022-09-05T10:14:45.038Z,99638.72
2022-09-05T10:17:20.337Z,99638.19
2022-09-05T10:20:09.897Z,99626.00
2022-09-05T10:22:46.372Z,99618.00
2022-09-05T10:25:58.233Z,99626.06
2022-09-05T10:28:43.806Z,99620.66
2022-09-05T10:32:13.564Z,99624.00
2022-09-05T10:35:12.935Z,99619.03
2022-09-05T10:37:11.875Z,99619.25
2022-09-05T10:39:43.435Z,99619.38
2022-09-05T10:42:15.561Z,99616.13
2022-09-05T10:44:54.802Z,99626.06
2022-09-05T10:47:49.231Z,99614.56
2022-09-05T10:50:28.913Z,99611.38
2022-09-05T10:53:13.717Z,99605.31
2022-09-05T10:55:59.103Z,99609.94
2022-09-05T11:02:18.680Z,99602.28
2022-09-05T11:02:27.304Z,99599.22
2022-09-05T11:05:08.156Z,99592.00
2022-09-05T11:07:59.133Z,99589.47
2022-09-05T11:10:50.107Z,99582.63
2022-09-05T11:13:48.045Z,99573.91
2022-09-05T11:16:38.365Z,99582.03
2022-09-05T11:19:17.779Z,99571.88
2022-09-05T11:22:19.853Z,99572.28
2022-09-05T11:24:57.142Z,99558.97
2022-09-05T11:27:31.808Z,99558.88
2022-09-05T11:30:06.892Z,99559.97
2022-09-05T11:39:52.945Z,99553.81
2022-09-05T11:39:53.051Z,99545.97
2022-09-05T11:40:07.751Z,99549.50
2022-09-05T11:41:55.291Z,99551.84
2022-09-05T11:44:49.776Z,99551.94
2022-09-05T11:47:40.940Z,99554.25
2022-09-05T11:50:47.771Z,99549.09
2022-09-05T11:53:38.705Z,99554.16
2022-09-05T11:56:13.194Z,99555.50
2022-09-05T11:58:59.574Z,99554.41
2022-09-05T12:02:16.793Z,99550.91
2022-09-05T12:05:48.477Z,99551.09
2022-09-05T12:08:22.990Z,99542.44
2022-09-05T12:11:10.127Z,99536.41
2022-09-05T12:14:17.065Z,99539.03
2022-09-05T12:17:35.285Z,99532.50
2022-09-05T12:20:16.714Z,99535.06
2022-09-05T12:23:01.562Z,99532.59
2022-09-05T12:27:41.086Z,99535.09
2022-09-05T12:29:33.965Z,99537.56
2022-09-05T12:34:02.716Z,99534.94
2022-09-05T12:36:06.371Z,99530.56
2022-09-05T12:40:56.296Z,99535.47
2022-09-05T12:41:42.900Z,99532.47
2022-09-05T12:44:41.383Z,99530.34
2022-09-05T12:47:16.893Z,99531.16
2022-09-05T12:50:14.566Z,99525.50
2022-09-05T12:52:46.212Z,99532.25
2022-09-05T12:55:15.907Z,99533.63
2022-09-05T13:02:57.033Z,99527.50
2022-09-05T13:03:07.649Z,99522.75
2022-09-05T13:04:15.768Z,99521.00
2022-09-05T13:06:46.312Z,99513.97
2022-09-05T13:09:21.095Z,99517.88
2022-09-05T13:14:59.975Z,99513.25
2022-09-05T13:15:24.659Z,99503.38
2022-09-05T13:18:00.727Z,99504.22
2022-09-05T13:20:36.840Z,99507.09
2022-09-05T13:23:16.110Z,99498.63
2022-09-05T13:25:50.512Z,99503.13
2022-09-05T13:28:19.960Z,99497.13
2022-09-05T13:37:56.096Z,99497.38
2022-09-05T13:38:11.508Z,99495.47
2022-09-05T13:38:20.017Z,99498.03
2022-09-05T13:40:02.107Z,99487.72
2022-09-05T13:42:35.482Z,99474.84
2022-09-05T13:45:03.945Z,99481.44
2022-09-05T13:48:16.893Z,99471.22
2022-09-05T13:50:52.828Z,99468.25
2022-09-05T13:53:28.949Z,99462.63
2022-09-05T13:56:32.092Z,99454.94
2022-09-05T13:59:10.926Z,99450.34
2022-09-05T14:01:39.584Z,99450.09
2022-09-05T14:05:11.166Z,99456.72
2022-09-05T14:07:59.202Z,99446.56
2022-09-05T14:10:40.707Z,99444.97
2022-09-05T14:13:19.116Z,99444.31
2022-09-05T14:16:00.727Z,99442.63
2022-09-05T14:18:54.656Z,99436.75
2022-09-05T14:21:24.957Z,99434.19
2022-09-05T14:24:03.352Z,99428.50
2022-09-05T14:26:38.669Z,99421.13
2022-09-05T14:29:14.222Z,99425.56
2022-09-05T14:37:40.538Z,99427.19
2022-09-05T14:37:48.905Z,99425.53
2022-09-05T14:38:15.315Z,99422.50
2022-09-05T14:41:19.358Z,99423.19
2022-09-05T14:44:08.911Z,99427.16
2022-09-05T14:47:11.137Z,99423.06
2022-09-05T14:50:21.284Z,99411.28
2022-09-05T14:56:09.717Z,99414.75
2022-09-05T15:02:51.198Z,99408.25
2022-09-05T15:02:55.256Z,99412.41
2022-09-05T15:04:40.883Z,99408.88
2022-09-05T15:07:23.814Z,99407.03
2022-09-05T15:11:29.535Z,99410.84
2022-09-05T15:13:05.703Z,99412.25
2022-09-05T15:15:39.102Z,99401.81
2022-09-05T15:18:09.802Z,99400.16
2022-09-05T15:20:50.959Z,99399.25
2022-09-05T15:23:26.252Z,99401.28
2022-09-05T15:26:16.527Z,99402.13
2022-09-05T15:28:46.303Z,99401.38
2022-09-05T15:31:18.949Z,99404.16
2022-09-05T15:33:50.820Z,99402.75
2022-09-05T15:36:41.728Z,99393.44
2022-09-05T15:39:31.892Z,99390.16
2022-09-05T15:42:20.171Z,99382.75
2022-09-05T15:45:09.194Z,99384.56
2022-09-05T15:47:35.914Z,99374.63
2022-09-05T15:50:07.810Z,99368.31
2022-09-05T15:52:55.098Z,99372.75
2022-09-05T15:55:27.173Z,99366.56
2022-09-05T15:57:59.338Z,99362.75
2022-09-05T16:00:51.422Z,99359.50
2022-09-05T16:03:53.867Z,99364.84
2022-09-05T16:10:38.382Z,99361.56
2022-09-05T16:10:50.407Z,99356.25
2022-09-05T16:12:14.471Z,99352.16
2022-09-05T16:17:07.018Z,99358.91
2022-09-05T16:23:16.224Z,99351.69
2022-09-05T16:23:31.903Z,99350.09
2022-09-05T16:23:42.712Z,99356.69
2022-09-05T16:26:11.633Z,99346.22
2022-09-05T16:28:57.550Z,99347.41
2022-09-05T16:31:59.577Z,99347.34
2022-09-05T16:35:06.484Z,99342.63
2022-09-05T16:37:50.941Z,99336.34
2022-09-05T16:40:30.975Z,99332.34
2022-09-05T16:43:11.835Z,99334.53
2022-09-05T16:45:47.255Z,99323.19
2022-09-05T16:48:35.436Z,99321.72
2022-09-05T16:51:15.344Z,99318.31
2022-09-05T16:53:58.709Z,99321.25
2022-09-05T16:57:00.475Z,99328.72
2022-09-05T16:59:31.490Z,99326.09
2022-09-05T17:02:15.613Z,99326.22
2022-09-05T17:05:03.998Z,99320.50
2022-09-05T17:08:03.491Z,99324.69
2022-09-05T17:10:57.627Z,99315.03
2022-09-05T17:13:38.267Z,99315.00
2022-09-05T17:16:06.909Z,99320.81
2022-09-05T17:18:36.213Z,99314.34
2022-09-05T17:21:09.381Z,99319.19
2022-09-05T17:28:44.469Z,99313.66
2022-09-05T17:29:33.330Z,99311.59
2022-09-05T17:31:10.878Z,99317.22
2022-09-05T17:32:51.433Z,99315.28
2022-09-05T17:35:52.229Z,99319.47
2022-09-05T17:38:28.471Z,99317.22
2022-09-05T17:41:07.037Z,99320.94
2022-09-05T17:43:38.566Z,99318.06
2022-09-05T17:46:29.658Z,99316.03
2022-09-05T17:49:17.778Z,99321.34
2022-09-05T17:51:52.071Z,99325.81
2022-09-05T17:54:30.184Z,99321.44
2022-09-05T17:57:28.317Z,99321.13
2022-09-05T18:00:11.256Z,99326.03
2022-09-05T18:02:54.098Z,99328.63
2022-09-05T18:05:56.800Z,99323.25
2022-09-05T18:08:45.217Z,99321.38
2022-09-05T18:11:18.023Z,99330.47
2022-09-05T18:14:10.765Z,99332.19
2022-09-05T18:17:36.038Z,99335.44
2022-09-05T18:19:41.986Z,99344.53
2022-09-05T18:22:25.445Z,99340.72
2022-09-05T18:25:27.185Z,99340.75
2022-09-05T18:28:04.833Z,99343.53
2022-09-05T18:33:55.444Z,99350.72
2022-09-05T18:35:57.826Z,99349.25
2022-09-05T18:38:51.355Z,99352.41
2022-09-05T18:41:18.841Z,99350.34
2022-09-05T18:44:13.964Z,99368.38
2022-09-05T18:46:50.831Z,99361.84
2022-09-05T18:50:22.250Z,99364.16
2022-09-05T18:52:23.466Z,99364.34
2022-09-05T18:56:11.617Z,99362.22
2022-09-05T18:57:48.666Z,99364.94
2022-09-05T19:00:24.444Z,99358.66
2022-09-05T19:03:06.961Z,99351.72
2022-09-05T19:05:39.600Z,99340.81
2022-09-05T19:08:28.769Z,99327.75
2022-09-05T19:10:58.742Z,99334.00
2022-09-05T19:13:35.741Z,99331.59
2022-09-05T19:16:21.222Z,99333.81
2022-09-05T19:19:17.543Z,99329.38
2022-09-05T19:21:56.239Z,99340.47
2022-09-05T19:24:44.883Z,99334.59
2022-09-05T19:29:33.220Z,99337.69
2022-09-05T19:36:58.902Z,99334.53
2022-09-05T19:37:12.159Z,99331.53
2022-09-05T19:37:15.103Z,99332.22
2022-09-05T19:38:26.489Z,99333.19
2022-09-05T19:47:25.412Z,99336.09
2022-09-05T19:47:37.386Z,99331.84
2022-09-05T19:47:57.513Z,99334.59
2022-09-05T19:49:39.092Z,99329.69
2022-09-05T19:52:24.642Z,99329.66
2022-09-05T19:54:54.732Z,99328.75
2022-09-05T19:57:21.462Z,99326.00
2022-09-05T19:59:54.459Z,99330.16
2022-09-05T20:02:29.846Z,99326.13
2022-09-05T20:04:59.825Z,99323.78
2022-09-05T20:07:29.041Z,99325.22
2022-09-05T20:09:58.355Z,99331.06
2022-09-05T20:12:38.911Z,99324.97
2022-09-05T20:15:35.741Z,99325.38
2022-09-05T20:18:22.913Z,99328.69
2022-09-05T20:20:57.106Z,99329.91
2022-09-05T20:23:28.177Z,99324.66
2022-09-05T20:25:57.734Z,99324.22
2022-09-05T20:28:28.014Z,99316.81
2022-09-05T20:30:59.634Z,99331.00
2022-09-05T20:33:51.985Z,99329.88
2022-09-05T20:43:09.524Z,99324.22
2022-09-05T20:43:20.494Z,99327.97
2022-09-05T20:43:24.004Z,99312.69
2022-09-05T20:46:19.524Z,99306.63
2022-09-05T20:54:07.425Z,99317.38
2022-09-05T20:54:14.299Z,99313.38
2022-09-05T20:54:41.988Z,99310.03
2022-09-05T20:57:17.812Z,99307.41
2022-09-05T20:59:47.065Z,99308.63
2022-09-05T21:02:30.242Z,99308.34
2022-09-05T21:05:20.241Z,99316.91
2022-09-05T21:07:55.821Z,99318.50
2022-09-05T21:10:34.270Z,99313.66
2022-09-05T21:13:24.897Z,99314.69
2022-09-05T21:15:53.623Z,99312.53
2022-09-05T21:18:24.245Z,99310.22
2022-09-05T21:21:05.407Z,99312.84
2022-09-05T21:24:08.951Z,99315.28
2022-09-05T21:26:43.679Z,99316.31
2022-09-05T21:29:13.195Z,99313.59
2022-09-05T21:31:45.825Z,99309.44
2022-09-05T21:34:27.545Z,99319.28
2022-09-05T21:37:06.323Z,99309.53
2022-09-05T21:39:46.752Z,99316.84
2022-09-05T21:43:51.438Z,99313.75
2022-09-05T21:47:42.054Z,99316.66
2022-09-05T21:48:03.301Z,99307.56
2022-09-05T21:50:37.553Z,99302.13
2022-09-05T21:53:45.283Z,99309.72
2022-09-05T21:59:20.518Z,99302.41
2022-09-05T21:59:29.831Z,99296.41
2022-09-05T22:01:44.745Z,99295.94
2022-09-05T22:04:15.267Z,99296.31
2022-09-05T22:06:48.789Z,99287.53
2022-09-05T22:09:17.716Z,99282.47
2022-09-05T22:11:49.922Z,99280.38
2022-09-05T22:14:17.209Z,99271.53
2022-09-05T22:16:46.462Z,99272.13
2022-09-05T22:19:26.197Z,99270.38
2022-09-05T22:22:17.862Z,99261.22
2022-09-05T22:25:01.853Z,99256.81
2022-09-05T22:27:30.325Z,99257.09
2022-09-05T22:29:57.359Z,99268.34
2022-09-05T22:32:30.970Z,99255.78
2022-09-05T22:35:16.139Z,99254.97
2022-09-05T22:37:55.356Z,99252.44
2022-09-05T22:40:28.186Z,99258.31
2022-09-05T22:42:56.739Z,99261.22
2022-09-05T22:45:23.332Z,99259.81
2022-09-05T22:47:49.927Z,99258.22
2022-09-05T22:50:16.818Z,99263.19
2022-09-05T22:52:43.459Z,99263.56
2022-09-05T22:55:10.078Z,99259.63
2022-09-05T22:57:38.950Z,99257.94
2022-09-05T23:00:07.220Z,99267.94
2022-09-05T23:02:35.058Z,99262.13
2022-09-05T23:05:05.589Z,99265.50
2022-09-05T23:07:32.458Z,99282.03
2022-09-05T23:09:59.126Z,99273.00
2022-09-05T23:12:25.869Z,99276.06
2022-09-05T23:14:52.662Z,99287.59
2022-09-05T23:17:19.215Z,99287.19
2022-09-05T23:19:45.655Z,99282.44
2022-09-05T23:22:12.161Z,99288.25
2022-09-05T23:24:38.596Z,99287.59
2022-09-05T23:27:05.172Z,99279.06
2022-09-05T23:29:31.624Z,99279.47
2022-09-05T23:31:58.248Z,99275.25
2022-09-05T23:34:25.524Z,99275.06
2022-09-05T23:36:52.198Z,99277.78
2022-09-05T23:39:18.694Z,99277.97
2022-09-05T23:41:47.230Z,99282.91
2022-09-05T23:44:13.814Z,99289.13
2022-09-05T23:46:40.585Z,99285.34
2022-09-05T23:49:07.120Z,99283.28
2022-09-05T23:51:35.799Z,99291.16
2022-09-05T23:54:02.320Z,99278.78
2022-09-05T23:56:28.904Z,99284.44
2022-09-05T23:58:55.345Z,99267.78
